sensor_id;sensor_type;location;lat;lon;timestamp;pressure;altitude;pressure_sealevel;temperature;humidity
76285;BME280;65096;50.998;7.098;2022-12-18T00:00:08;102271.28;;;-4.48;59.06
76285;BME280;65096;50.998;7.098;2022-12-18T00:02:35;102263.50;;;-4.41;58.97
76285;BME280;65096;50.998;7.098;2022-12-18T00:05:02;102255.00;;;-4.52;58.97
76285;BME280;65096;50.998;7.098;2022-12-18T00:07:30;102261.19;;;-4.48;58.90
76285;BME280;65096;50.998;7.098;2022-12-18T00:09:57;102259.22;;;-4.42;58.74
76285;BME280;65096;50.998;7.098;2022-12-18T00:12:24;102260.84;;;-4.43;59.00
76285;BME280;65096;50.998;7.098;2022-12-18T00:14:52;102247.94;;;-4.56;58.75
76285;BME280;65096;50.998;7.098;2022-12-18T00:17:18;102260.94;;;-4.51;58.90
76285;BME280;65096;50.998;7.098;2022-12-18T00:19:45;102266.75;;;-4.61;59.13
76285;BME280;65096;50.998;7.098;2022-12-18T00:22:11;102263.09;;;-4.46;59.05
76285;BME280;65096;50.998;7.098;2022-12-18T00:24:39;102274.34;;;-4.42;58.84
76285;BME280;65096;50.998;7.098;2022-12-18T00:27:06;102271.91;;;-4.32;58.60
76285;BME280;65096;50.998;7.098;2022-12-18T00:29:33;102276.91;;;-4.24;58.16
76285;BME280;65096;50.998;7.098;2022-12-18T00:31:59;102281.03;;;-4.24;58.50
76285;BME280;65096;50.998;7.098;2022-12-18T00:34:26;102279.69;;;-4.21;58.13
76285;BME280;65096;50.998;7.098;2022-12-18T00:36:53;102274.50;;;-4.22;58.09
76285;BME280;65096;50.998;7.098;2022-12-18T00:39:19;102280.66;;;-4.37;58.13
76285;BME280;65096;50.998;7.098;2022-12-18T00:41:47;102282.06;;;-4.49;58.52
76285;BME280;65096;50.998;7.098;2022-12-18T00:44:32;102276.41;;;-4.38;58.63
76285;BME280;65096;50.998;7.098;2022-12-18T00:46:58;102276.81;;;-4.34;58.55
76285;BME280;65096;50.998;7.098;2022-12-18T00:49:25;102272.44;;;-4.26;58.28
76285;BME280;65096;50.998;7.098;2022-12-18T00:51:51;102269.53;;;-4.31;58.12
76285;BME280;65096;50.998;7.098;2022-12-18T00:54:18;102262.09;;;-4.29;58.00
76285;BME280;65096;50.998;7.098;2022-12-18T00:56:45;102259.53;;;-4.21;58.27
76285;BME280;65096;50.998;7.098;2022-12-18T00:59:13;102255.59;;;-4.27;57.89
76285;BME280;65096;50.998;7.098;2022-12-18T01:01:40;102257.59;;;-4.23;58.42
76285;BME280;65096;50.998;7.098;2022-12-18T01:04:06;102252.56;;;-4.23;58.37
76285;BME280;65096;50.998;7.098;2022-12-18T01:06:33;102259.09;;;-4.25;58.08
76285;BME280;65096;50.998;7.098;2022-12-18T01:09:00;102258.38;;;-4.24;57.82
76285;BME280;65096;50.998;7.098;2022-12-18T01:11:26;102251.28;;;-4.28;57.69
76285;BME280;65096;50.998;7.098;2022-12-18T01:13:53;102250.88;;;-4.33;58.12
76285;BME280;65096;50.998;7.098;2022-12-18T01:16:22;102228.44;;;-4.40;58.07
76285;BME280;65096;50.998;7.098;2022-12-18T01:18:51;102245.25;;;-4.30;58.13
76285;BME280;65096;50.998;7.098;2022-12-18T01:21:20;102246.06;;;-4.21;58.04
76285;BME280;65096;50.998;7.098;2022-12-18T01:23:51;102257.28;;;-4.18;58.19
76285;BME280;65096;50.998;7.098;2022-12-18T01:26:17;102260.13;;;-4.23;58.13
76285;BME280;65096;50.998;7.098;2022-12-18T01:28:44;102265.56;;;-4.37;58.25
76285;BME280;65096;50.998;7.098;2022-12-18T01:31:13;102262.25;;;-4.28;58.34
76285;BME280;65096;50.998;7.098;2022-12-18T01:33:41;102255.84;;;-4.24;58.37
76285;BME280;65096;50.998;7.098;2022-12-18T01:36:11;102250.41;;;-4.29;58.33
76285;BME280;65096;50.998;7.098;2022-12-18T01:38:40;102254.56;;;-4.29;58.43
76285;BME280;65096;50.998;7.098;2022-12-18T01:41:08;102248.03;;;-4.27;58.53
76285;BME280;65096;50.998;7.098;2022-12-18T01:43:52;102256.97;;;-4.39;58.70
76285;BME280;65096;50.998;7.098;2022-12-18T01:46:21;102260.84;;;-4.43;59.29
76285;BME280;65096;50.998;7.098;2022-12-18T01:48:52;102250.38;;;-4.47;58.91
76285;BME280;65096;50.998;7.098;2022-12-18T01:51:19;102254.41;;;-4.31;58.87
76285;BME280;65096;50.998;7.098;2022-12-18T01:53:47;102260.53;;;-4.19;58.63
76285;BME280;65096;50.998;7.098;2022-12-18T01:56:15;102257.41;;;-4.16;58.65
76285;BME280;65096;50.998;7.098;2022-12-18T01:58:48;102235.97;;;-4.21;58.43
76285;BME280;65096;50.998;7.098;2022-12-18T02:01:17;102246.53;;;-4.07;58.44
76285;BME280;65096;50.998;7.098;2022-12-18T02:03:44;102240.59;;;-4.07;58.02
76285;BME280;65096;50.998;7.098;2022-12-18T02:06:16;102246.03;;;-4.03;58.15
76285;BME280;65096;50.998;7.098;2022-12-18T02:08:50;102250.13;;;-3.95;58.21
76285;BME280;65096;50.998;7.098;2022-12-18T02:11:28;102267.41;;;-3.89;58.07
76285;BME280;65096;50.998;7.098;2022-12-18T02:14:04;102260.88;;;-3.87;57.89
76285;BME280;65096;50.998;7.098;2022-12-18T02:16:38;102257.59;;;-3.86;58.10
76285;BME280;65096;50.998;7.098;2022-12-18T02:19:18;102270.59;;;-3.81;57.81
76285;BME280;65096;50.998;7.098;2022-12-18T02:21:54;102252.97;;;-3.81;57.53
76285;BME280;65096;50.998;7.098;2022-12-18T02:24:29;102248.94;;;-3.79;57.64
76285;BME280;65096;50.998;7.098;2022-12-18T02:27:00;102250.81;;;-3.87;57.88
76285;BME280;65096;50.998;7.098;2022-12-18T02:29:32;102256.59;;;-3.88;57.52
76285;BME280;65096;50.998;7.098;2022-12-18T02:32:03;102253.53;;;-3.94;57.68
76285;BME280;65096;50.998;7.098;2022-12-18T02:34:34;102256.44;;;-3.90;57.93
76285;BME280;65096;50.998;7.098;2022-12-18T02:37:07;102255.59;;;-3.90;58.01
76285;BME280;65096;50.998;7.098;2022-12-18T02:39:37;102255.41;;;-3.92;57.64
76285;BME280;65096;50.998;7.098;2022-12-18T02:42:06;102237.78;;;-3.92;57.67
76285;BME280;65096;50.998;7.098;2022-12-18T02:44:33;102223.22;;;-4.04;57.73
76285;BME280;65096;50.998;7.098;2022-12-18T02:47:00;102237.88;;;-4.00;58.18
76285;BME280;65096;50.998;7.098;2022-12-18T02:49:33;102240.53;;;-3.99;58.06
76285;BME280;65096;50.998;7.098;2022-12-18T02:52:08;102229.97;;;-3.95;57.75
76285;BME280;65096;50.998;7.098;2022-12-18T02:54:49;102225.56;;;-3.97;57.94
76285;BME280;65096;50.998;7.098;2022-12-18T02:57:24;102231.63;;;-3.95;57.76
76285;BME280;65096;50.998;7.098;2022-12-18T02:59:59;102233.88;;;-3.98;57.49
76285;BME280;65096;50.998;7.098;2022-12-18T03:02:33;102230.31;;;-4.00;57.92
76285;BME280;65096;50.998;7.098;2022-12-18T03:05:09;102232.34;;;-3.96;58.08
76285;BME280;65096;50.998;7.098;2022-12-18T03:07:41;102231.19;;;-4.00;57.37
76285;BME280;65096;50.998;7.098;2022-12-18T03:10:13;102234.34;;;-4.02;57.99
76285;BME280;65096;50.998;7.098;2022-12-18T03:12:45;102237.47;;;-4.05;58.03
76285;BME280;65096;50.998;7.098;2022-12-18T03:15:16;102230.47;;;-3.99;58.01
76285;BME280;65096;50.998;7.098;2022-12-18T03:17:46;102228.06;;;-3.97;57.59
76285;BME280;65096;50.998;7.098;2022-12-18T03:20:18;102222.28;;;-3.96;57.97
76285;BME280;65096;50.998;7.098;2022-12-18T03:22:50;102221.75;;;-4.21;57.84
76285;BME280;65096;50.998;7.098;2022-12-18T03:25:19;102215.91;;;-4.11;57.88
76285;BME280;65096;50.998;7.098;2022-12-18T03:27:49;102210.38;;;-4.07;58.11
76285;BME280;65096;50.998;7.098;2022-12-18T03:30:18;102209.03;;;-4.22;57.92
76285;BME280;65096;50.998;7.098;2022-12-18T03:32:47;102211.06;;;-4.37;58.57
76285;BME280;65096;50.998;7.098;2022-12-18T03:35:20;102210.00;;;-4.30;58.75
76285;BME280;65096;50.998;7.098;2022-12-18T03:37:48;102201.28;;;-4.34;58.79
76285;BME280;65096;50.998;7.098;2022-12-18T03:40:15;102199.97;;;-4.20;58.70
76285;BME280;65096;50.998;7.098;2022-12-18T03:42:48;102197.25;;;-4.13;58.28
76285;BME280;65096;50.998;7.098;2022-12-18T03:45:23;102202.00;;;-4.16;58.56
76285;BME280;65096;50.998;7.098;2022-12-18T03:47:59;102200.72;;;-4.21;58.73
76285;BME280;65096;50.998;7.098;2022-12-18T03:50:35;102204.81;;;-4.13;58.39
76285;BME280;65096;50.998;7.098;2022-12-18T03:53:11;102202.59;;;-4.19;58.55
76285;BME280;65096;50.998;7.098;2022-12-18T03:55:41;102207.25;;;-4.42;59.01
76285;BME280;65096;50.998;7.098;2022-12-18T03:58:13;102202.56;;;-4.29;58.75
76285;BME280;65096;50.998;7.098;2022-12-18T04:00:43;102188.88;;;-4.22;58.94
76285;BME280;65096;50.998;7.098;2022-12-18T04:03:10;102183.78;;;-4.32;58.76
76285;BME280;65096;50.998;7.098;2022-12-18T04:05:38;102188.00;;;-4.23;58.95
76285;BME280;65096;50.998;7.098;2022-12-18T04:08:06;102188.53;;;-4.17;58.77
76285;BME280;65096;50.998;7.098;2022-12-18T04:10:33;102183.03;;;-4.13;58.39
76285;BME280;65096;50.998;7.098;2022-12-18T04:13:00;102181.31;;;-4.04;58.61
76285;BME280;65096;50.998;7.098;2022-12-18T04:15:28;102178.72;;;-4.14;58.52
76285;BME280;65096;50.998;7.098;2022-12-18T04:17:55;102184.19;;;-4.28;58.44
76285;BME280;65096;50.998;7.098;2022-12-18T04:20:21;102187.75;;;-4.16;58.65
76285;BME280;65096;50.998;7.098;2022-12-18T04:22:48;102179.34;;;-4.35;58.63
76285;BME280;65096;50.998;7.098;2022-12-18T04:25:15;102175.53;;;-4.21;58.74
76285;BME280;65096;50.998;7.098;2022-12-18T04:27:41;102186.09;;;-4.44;59.40
76285;BME280;65096;50.998;7.098;2022-12-18T04:30:08;102186.88;;;-4.35;59.18
76285;BME280;65096;50.998;7.098;2022-12-18T04:32:37;102192.41;;;-4.20;59.05
76285;BME280;65096;50.998;7.098;2022-12-18T04:35:04;102195.06;;;-4.19;58.66
76285;BME280;65096;50.998;7.098;2022-12-18T04:37:35;102192.66;;;-4.17;58.65
76285;BME280;65096;50.998;7.098;2022-12-18T04:40:02;102193.09;;;-4.31;59.17
76285;BME280;65096;50.998;7.098;2022-12-18T04:42:29;102188.31;;;-4.28;58.71
76285;BME280;65096;50.998;7.098;2022-12-18T04:44:56;102191.59;;;-4.29;58.56
76285;BME280;65096;50.998;7.098;2022-12-18T04:47:22;102189.88;;;-4.20;59.03
76285;BME280;65096;50.998;7.098;2022-12-18T04:49:50;102191.59;;;-4.29;58.97
76285;BME280;65096;50.998;7.098;2022-12-18T04:52:17;102188.88;;;-4.41;58.77
76285;BME280;65096;50.998;7.098;2022-12-18T04:54:44;102190.72;;;-4.48;59.27
76285;BME280;65096;50.998;7.098;2022-12-18T04:57:10;102178.66;;;-4.42;59.03
76285;BME280;65096;50.998;7.098;2022-12-18T04:59:37;102182.81;;;-4.43;59.10
76285;BME280;65096;50.998;7.098;2022-12-18T05:02:03;102177.03;;;-4.42;58.82
76285;BME280;65096;50.998;7.098;2022-12-18T05:04:30;102173.19;;;-4.38;58.99
76285;BME280;65096;50.998;7.098;2022-12-18T05:06:58;102177.38;;;-4.29;58.79
76285;BME280;65096;50.998;7.098;2022-12-18T05:09:25;102179.34;;;-4.35;59.12
76285;BME280;65096;50.998;7.098;2022-12-18T05:11:51;102178.47;;;-4.35;58.94
76285;BME280;65096;50.998;7.098;2022-12-18T05:14:19;102180.72;;;-4.38;58.75
76285;BME280;65096;50.998;7.098;2022-12-18T05:16:46;102176.91;;;-4.25;58.49
76285;BME280;65096;50.998;7.098;2022-12-18T05:19:12;102162.75;;;-4.14;58.34
76285;BME280;65096;50.998;7.098;2022-12-18T05:21:39;102161.44;;;-4.19;58.20
76285;BME280;65096;50.998;7.098;2022-12-18T05:24:07;102165.19;;;-4.24;58.50
76285;BME280;65096;50.998;7.098;2022-12-18T05:26:34;102170.38;;;-4.23;58.35
76285;BME280;65096;50.998;7.098;2022-12-18T05:29:01;102166.09;;;-4.24;58.50
76285;BME280;65096;50.998;7.098;2022-12-18T05:31:27;102162.06;;;-4.22;58.17
76285;BME280;65096;50.998;7.098;2022-12-18T05:33:54;102173.78;;;-4.22;58.57
76285;BME280;65096;50.998;7.098;2022-12-18T05:36:20;102179.09;;;-4.19;58.04
76285;BME280;65096;50.998;7.098;2022-12-18T05:38:47;102184.44;;;-4.25;58.02
76285;BME280;65096;50.998;7.098;2022-12-18T05:41:15;102175.88;;;-4.27;58.21
76285;BME280;65096;50.998;7.098;2022-12-18T05:43:42;102172.69;;;-4.34;58.39
76285;BME280;65096;50.998;7.098;2022-12-18T05:46:10;102179.78;;;-4.30;58.43
76285;BME280;65096;50.998;7.098;2022-12-18T05:48:38;102185.91;;;-4.37;58.60
76285;BME280;65096;50.998;7.098;2022-12-18T05:51:06;102190.16;;;-4.36;58.48
76285;BME280;65096;50.998;7.098;2022-12-18T05:53:35;102196.78;;;-4.46;58.67
76285;BME280;65096;50.998;7.098;2022-12-18T05:56:02;102206.22;;;-4.44;58.68
76285;BME280;65096;50.998;7.098;2022-12-18T05:58:31;102200.44;;;-4.43;58.76
76285;BME280;65096;50.998;7.098;2022-12-18T06:01:06;102193.09;;;-4.31;58.45
76285;BME280;65096;50.998;7.098;2022-12-18T06:03:33;102204.31;;;-4.28;58.52
76285;BME280;65096;50.998;7.098;2022-12-18T06:05:59;102213.78;;;-4.25;57.97
76285;BME280;65096;50.998;7.098;2022-12-18T06:08:27;102212.34;;;-4.13;57.75
76285;BME280;65096;50.998;7.098;2022-12-18T06:10:53;102220.03;;;-4.12;58.05
76285;BME280;65096;50.998;7.098;2022-12-18T06:13:20;102216.38;;;-4.15;58.11
76285;BME280;65096;50.998;7.098;2022-12-18T06:15:49;102212.34;;;-4.13;57.88
76285;BME280;65096;50.998;7.098;2022-12-18T06:18:15;102229.38;;;-4.29;58.07
76285;BME280;65096;50.998;7.098;2022-12-18T06:20:42;102226.56;;;-4.14;58.01
76285;BME280;65096;50.998;7.098;2022-12-18T06:23:08;102231.00;;;-4.11;57.75
76285;BME280;65096;50.998;7.098;2022-12-18T06:25:37;102236.72;;;-4.04;58.06
76285;BME280;65096;50.998;7.098;2022-12-18T06:28:04;102245.22;;;-3.93;57.68
76285;BME280;65096;50.998;7.098;2022-12-18T06:30:30;102245.50;;;-3.90;57.85
76285;BME280;65096;50.998;7.098;2022-12-18T06:32:58;102246.03;;;-3.84;57.76
76285;BME280;65096;50.998;7.098;2022-12-18T06:35:25;102247.47;;;-3.77;57.16
76285;BME280;65096;50.998;7.098;2022-12-18T06:37:51;102237.13;;;-3.80;57.06
76285;BME280;65096;50.998;7.098;2022-12-18T06:40:18;102243.03;;;-3.80;57.01
76285;BME280;65096;50.998;7.098;2022-12-18T06:42:45;102234.28;;;-3.83;56.92
76285;BME280;65096;50.998;7.098;2022-12-18T06:45:12;102224.97;;;-3.84;57.26
76285;BME280;65096;50.998;7.098;2022-12-18T06:47:38;102216.22;;;-3.98;57.45
76285;BME280;65096;50.998;7.098;2022-12-18T06:50:07;102218.25;;;-3.94;57.38
76285;BME280;65096;50.998;7.098;2022-12-18T06:52:34;102218.53;;;-3.91;57.36
76285;BME280;65096;50.998;7.098;2022-12-18T06:55:02;102206.06;;;-3.90;57.11
76285;BME280;65096;50.998;7.098;2022-12-18T06:57:29;102213.22;;;-3.94;57.01
76285;BME280;65096;50.998;7.098;2022-12-18T06:59:55;102217.34;;;-4.05;57.08
76285;BME280;65096;50.998;7.098;2022-12-18T07:02:22;102218.19;;;-4.04;57.23
76285;BME280;65096;50.998;7.098;2022-12-18T07:04:50;102217.34;;;-4.05;57.10
76285;BME280;65096;50.998;7.098;2022-12-18T07:07:18;102222.88;;;-4.17;57.18
76285;BME280;65096;50.998;7.098;2022-12-18T07:09:44;102221.25;;;-4.17;57.44
76285;BME280;65096;50.998;7.098;2022-12-18T07:12:11;102229.84;;;-4.15;57.58
76285;BME280;65096;50.998;7.098;2022-12-18T07:14:38;102217.53;;;-4.12;57.74
76285;BME280;65096;50.998;7.098;2022-12-18T07:17:05;102220.72;;;-4.04;57.60
76285;BME280;65096;50.998;7.098;2022-12-18T07:19:31;102218.88;;;-3.97;57.51
76285;BME280;65096;50.998;7.098;2022-12-18T07:21:58;102220.38;;;-3.99;57.18
76285;BME280;65096;50.998;7.098;2022-12-18T07:24:26;102226.31;;;-3.98;57.32
76285;BME280;65096;50.998;7.098;2022-12-18T07:26:53;102214.72;;;-3.96;57.52
76285;BME280;65096;50.998;7.098;2022-12-18T07:29:19;102217.78;;;-3.90;57.16
76285;BME280;65096;50.998;7.098;2022-12-18T07:31:46;102226.22;;;-3.90;57.40
76285;BME280;65096;50.998;7.098;2022-12-18T07:34:13;102218.19;;;-3.85;57.03
76285;BME280;65096;50.998;7.098;2022-12-18T07:36:40;102205.72;;;-3.84;56.92
76285;BME280;65096;50.998;7.098;2022-12-18T07:39:07;102214.84;;;-3.95;56.63
76285;BME280;65096;50.998;7.098;2022-12-18T07:41:35;102208.25;;;-4.03;56.97
76285;BME280;65096;50.998;7.098;2022-12-18T07:44:09;102197.63;;;-4.09;56.97
76285;BME280;65096;50.998;7.098;2022-12-18T07:46:35;102200.66;;;-4.13;57.05
76285;BME280;65096;50.998;7.098;2022-12-18T07:49:02;102191.09;;;-4.25;57.40
76285;BME280;65096;50.998;7.098;2022-12-18T07:51:29;102197.59;;;-4.37;57.52
76285;BME280;65096;50.998;7.098;2022-12-18T07:53:56;102196.38;;;-4.32;57.76
76285;BME280;65096;50.998;7.098;2022-12-18T07:56:23;102194.38;;;-4.63;58.15
76285;BME280;65096;50.998;7.098;2022-12-18T07:58:51;102201.50;;;-4.49;58.38
76285;BME280;65096;50.998;7.098;2022-12-18T08:01:17;102207.13;;;-4.43;58.18
76285;BME280;65096;50.998;7.098;2022-12-18T08:03:44;102206.31;;;-4.34;57.86
76285;BME280;65096;50.998;7.098;2022-12-18T08:06:11;102196.16;;;-4.25;57.86
76285;BME280;65096;50.998;7.098;2022-12-18T08:08:37;102202.75;;;-4.17;58.20
76285;BME280;65096;50.998;7.098;2022-12-18T08:11:05;102190.72;;;-4.11;57.82
76285;BME280;65096;50.998;7.098;2022-12-18T08:13:32;102185.81;;;-4.10;57.46
76285;BME280;65096;50.998;7.098;2022-12-18T08:16:02;102175.81;;;-4.18;57.52
76285;BME280;65096;50.998;7.098;2022-12-18T08:18:29;102176.50;;;-4.29;57.48
76285;BME280;65096;50.998;7.098;2022-12-18T08:21:07;102174.38;;;-4.25;57.78
76285;BME280;65096;50.998;7.098;2022-12-18T08:23:34;102174.38;;;-4.25;57.56
76285;BME280;65096;50.998;7.098;2022-12-18T08:26:01;102178.44;;;-4.17;57.58
76285;BME280;65096;50.998;7.098;2022-12-18T08:28:28;102171.03;;;-4.15;57.48
76285;BME280;65096;50.998;7.098;2022-12-18T08:30:54;102156.06;;;-4.14;57.82
76285;BME280;65096;50.998;7.098;2022-12-18T08:33:22;102147.25;;;-4.09;57.51
76285;BME280;65096;50.998;7.098;2022-12-18T08:35:49;102135.78;;;-4.15;57.43
76285;BME280;65096;50.998;7.098;2022-12-18T08:38:16;102127.31;;;-4.16;57.65
76285;BME280;65096;50.998;7.098;2022-12-18T08:40:42;102131.03;;;-4.31;57.68
76285;BME280;65096;50.998;7.098;2022-12-18T08:43:09;102129.28;;;-4.32;58.15
76285;BME280;65096;50.998;7.098;2022-12-18T08:45:54;102130.28;;;-4.30;58.05
76285;BME280;65096;50.998;7.098;2022-12-18T08:48:20;102136.53;;;-4.35;58.36
76285;BME280;65096;50.998;7.098;2022-12-18T08:50:54;102142.66;;;-4.23;58.24
76285;BME280;65096;50.998;7.098;2022-12-18T08:53:21;102157.50;;;-4.26;58.39
76285;BME280;65096;50.998;7.098;2022-12-18T08:55:48;102150.22;;;-4.41;58.54
76285;BME280;65096;50.998;7.098;2022-12-18T08:58:14;102151.16;;;-4.12;57.97
76285;BME280;65096;50.998;7.098;2022-12-18T09:00:41;102145.91;;;-4.05;59.08
76285;BME280;65096;50.998;7.098;2022-12-18T09:03:11;102147.41;;;-4.07;57.82
76285;BME280;65096;50.998;7.098;2022-12-18T09:05:38;102135.91;;;-4.14;57.75
76285;BME280;65096;50.998;7.098;2022-12-18T09:08:05;102146.69;;;-3.96;57.83
76285;BME280;65096;50.998;7.098;2022-12-18T09:10:33;102146.78;;;-3.76;57.50
76285;BME280;65096;50.998;7.098;2022-12-18T09:13:00;102136.56;;;-3.77;57.23
76285;BME280;65096;50.998;7.098;2022-12-18T09:15:26;102129.66;;;-3.70;57.13
76285;BME280;65096;50.998;7.098;2022-12-18T09:17:53;102138.38;;;-3.66;56.69
76285;BME280;65096;50.998;7.098;2022-12-18T09:20:19;102132.94;;;-3.61;56.73
76285;BME280;65096;50.998;7.098;2022-12-18T09:22:46;102134.69;;;-3.70;56.89
76285;BME280;65096;50.998;7.098;2022-12-18T09:25:14;102133.63;;;-3.82;57.03
76285;BME280;65096;50.998;7.098;2022-12-18T09:27:41;102137.88;;;-3.62;57.15
76285;BME280;65096;50.998;7.098;2022-12-18T09:30:09;102136.31;;;-3.80;56.77
76285;BME280;65096;50.998;7.098;2022-12-18T09:32:35;102116.13;;;-3.91;57.10
76285;BME280;65096;50.998;7.098;2022-12-18T09:35:02;102119.72;;;-3.68;56.75
76285;BME280;65096;50.998;7.098;2022-12-18T09:37:29;102116.94;;;-3.71;56.98
76285;BME280;65096;50.998;7.098;2022-12-18T09:39:55;102122.13;;;-3.50;56.71
76285;BME280;65096;50.998;7.098;2022-12-18T09:42:23;102129.25;;;-3.36;56.17
76285;BME280;65096;50.998;7.098;2022-12-18T09:44:52;102119.34;;;-3.53;56.15
76285;BME280;65096;50.998;7.098;2022-12-18T09:47:23;102111.53;;;-3.56;56.64
76285;BME280;65096;50.998;7.098;2022-12-18T09:49:52;102115.50;;;-3.29;56.04
76285;BME280;65096;50.998;7.098;2022-12-18T09:52:24;102110.81;;;-3.55;55.78
76285;BME280;65096;50.998;7.098;2022-12-18T09:54:55;102108.63;;;-3.60;56.27
76285;BME280;65096;50.998;7.098;2022-12-18T09:57:26;102099.47;;;-3.40;55.90
76285;BME280;65096;50.998;7.098;2022-12-18T09:59:55;102100.25;;;-3.11;56.42
76285;BME280;65096;50.998;7.098;2022-12-18T10:02:25;102103.88;;;-3.27;55.13
76285;BME280;65096;50.998;7.098;2022-12-18T10:05:03;102100.25;;;-3.01;54.72
76285;BME280;65096;50.998;7.098;2022-12-18T10:07:38;102095.31;;;-3.09;54.71
76285;BME280;65096;50.998;7.098;2022-12-18T10:10:16;102090.00;;;-2.92;54.49
76285;BME280;65096;50.998;7.098;2022-12-18T10:12:55;102085.44;;;-2.66;54.09
76285;BME280;65096;50.998;7.098;2022-12-18T10:15:28;102090.13;;;-2.81;54.06
76285;BME280;65096;50.998;7.098;2022-12-18T10:18:06;102079.59;;;-2.55;53.21
76285;BME280;65096;50.998;7.098;2022-12-18T10:20:41;102084.50;;;-2.36;52.76
76285;BME280;65096;50.998;7.098;2022-12-18T10:23:17;102078.69;;;-2.35;52.71
76285;BME280;65096;50.998;7.098;2022-12-18T10:25:52;102070.09;;;-2.38;53.00
76285;BME280;65096;50.998;7.098;2022-12-18T10:28:23;102060.44;;;-2.21;52.30
76285;BME280;65096;50.998;7.098;2022-12-18T10:30:51;102046.03;;;-2.54;52.69
76285;BME280;65096;50.998;7.098;2022-12-18T10:33:19;102057.56;;;-2.26;52.13
76285;BME280;65096;50.998;7.098;2022-12-18T10:35:47;102058.22;;;-2.07;52.17
76285;BME280;65096;50.998;7.098;2022-12-18T10:38:23;102057.53;;;-1.94;51.99
76285;BME280;65096;50.998;7.098;2022-12-18T10:40:52;102063.38;;;-2.05;51.94
76285;BME280;65096;50.998;7.098;2022-12-18T10:43:23;102065.28;;;-2.03;52.26
76285;BME280;65096;50.998;7.098;2022-12-18T10:48:53;102044.06;;;-1.83;51.66
76285;BME280;65096;50.998;7.098;2022-12-18T10:51:23;102042.72;;;-2.11;51.67
76285;BME280;65096;50.998;7.098;2022-12-18T10:53:54;102040.97;;;-2.12;52.31
76285;BME280;65096;50.998;7.098;2022-12-18T10:56:24;102038.47;;;-2.01;51.70
76285;BME280;65096;50.998;7.098;2022-12-18T10:58:58;102022.97;;;-2.05;51.75
76285;BME280;65096;50.998;7.098;2022-12-18T11:01:26;102030.78;;;-2.02;52.15
76285;BME280;65096;50.998;7.098;2022-12-18T11:04:02;102033.75;;;-2.18;52.33
76285;BME280;65096;50.998;7.098;2022-12-18T11:06:29;102031.38;;;-1.73;52.72
76285;BME280;65096;50.998;7.098;2022-12-18T11:09:01;102034.38;;;-1.89;51.65
76285;BME280;65096;50.998;7.098;2022-12-18T11:11:28;102039.38;;;-1.79;51.90
76285;BME280;65096;50.998;7.098;2022-12-18T11:14:02;102029.72;;;-2.16;52.33
76285;BME280;65096;50.998;7.098;2022-12-18T11:16:32;102038.06;;;-1.95;52.54
76285;BME280;65096;50.998;7.098;2022-12-18T11:19:20;102030.66;;;-2.04;52.38
76285;BME280;65096;50.998;7.098;2022-12-18T11:21:49;102026.69;;;-1.90;52.23
76285;BME280;65096;50.998;7.098;2022-12-18T11:24:22;102017.44;;;-1.90;52.25
76285;BME280;65096;50.998;7.098;2022-12-18T11:26:53;102023.31;;;-2.22;52.96
76285;BME280;65096;50.998;7.098;2022-12-18T11:29:28;102022.84;;;-2.07;52.76
76285;BME280;65096;50.998;7.098;2022-12-18T11:32:26;102025.91;;;-1.89;53.06
76285;BME280;65096;50.998;7.098;2022-12-18T11:35:01;102025.78;;;-1.91;52.74
76285;BME280;65096;50.998;7.098;2022-12-18T11:37:31;102015.38;;;-1.84;52.58
76285;BME280;65096;50.998;7.098;2022-12-18T11:40:01;102013.44;;;-1.98;52.23
76285;BME280;65096;50.998;7.098;2022-12-18T11:42:35;101999.63;;;-2.13;53.29
76285;BME280;65096;50.998;7.098;2022-12-18T11:45:24;102001.81;;;-1.96;52.91
76285;BME280;65096;50.998;7.098;2022-12-18T11:47:57;102001.72;;;-2.07;53.13
76285;BME280;65096;50.998;7.098;2022-12-18T11:50:28;101986.84;;;-2.04;52.65
76285;BME280;65096;50.998;7.098;2022-12-18T11:52:56;101993.47;;;-2.38;54.09
76285;BME280;65096;50.998;7.098;2022-12-18T11:55:29;101988.75;;;-1.90;52.91
76285;BME280;65096;50.998;7.098;2022-12-18T11:58:03;101988.31;;;-1.85;52.82
76285;BME280;65096;50.998;7.098;2022-12-18T12:00:38;101985.47;;;-1.56;52.42
76285;BME280;65096;50.998;7.098;2022-12-18T12:03:41;101989.28;;;-1.94;52.67
76285;BME280;65096;50.998;7.098;2022-12-18T12:06:15;101968.59;;;-2.00;53.41
76285;BME280;65096;50.998;7.098;2022-12-18T12:08:55;101971.31;;;-2.30;53.58
76285;BME280;65096;50.998;7.098;2022-12-18T12:11:35;101980.31;;;-2.12;53.13
76285;BME280;65096;50.998;7.098;2022-12-18T12:14:20;101990.22;;;-2.57;54.10
76285;BME280;65096;50.998;7.098;2022-12-18T12:16:57;101985.50;;;-2.43;54.13
76285;BME280;65096;50.998;7.098;2022-12-18T12:19:39;101984.00;;;-2.51;54.24
76285;BME280;65096;50.998;7.098;2022-12-18T12:22:15;101994.97;;;-2.72;55.10
76285;BME280;65096;50.998;7.098;2022-12-18T12:24:55;101992.22;;;-2.85;55.31
76285;BME280;65096;50.998;7.098;2022-12-18T12:27:31;101985.91;;;-2.48;54.72
76285;BME280;65096;50.998;7.098;2022-12-18T12:30:04;101980.72;;;-2.18;54.63
76285;BME280;65096;50.998;7.098;2022-12-18T12:32:46;101978.47;;;-2.25;54.23
76285;BME280;65096;50.998;7.098;2022-12-18T12:35:25;101968.06;;;-2.71;54.82
76285;BME280;65096;50.998;7.098;2022-12-18T12:38:05;101965.06;;;-2.77;55.29
76285;BME280;65096;50.998;7.098;2022-12-18T12:40:37;101960.00;;;-2.46;54.91
76285;BME280;65096;50.998;7.098;2022-12-18T12:43:16;101955.22;;;-2.21;54.91
76285;BME280;65096;50.998;7.098;2022-12-18T12:45:49;101953.69;;;-2.19;54.31
76285;BME280;65096;50.998;7.098;2022-12-18T12:48:33;101949.66;;;-2.49;54.72
76285;BME280;65096;50.998;7.098;2022-12-18T12:51:04;101952.63;;;-2.32;54.37
76285;BME280;65096;50.998;7.098;2022-12-18T12:53:36;101958.53;;;-1.89;54.17
76285;BME280;65096;50.998;7.098;2022-12-18T12:56:05;101956.34;;;-1.84;53.49
76285;BME280;65096;50.998;7.098;2022-12-18T12:58:36;101950.50;;;-2.16;54.02
76285;BME280;65096;50.998;7.098;2022-12-18T13:01:12;101953.25;;;-2.13;54.41
76285;BME280;65096;50.998;7.098;2022-12-18T13:03:48;101941.81;;;-1.98;53.86
76285;BME280;65096;50.998;7.098;2022-12-18T13:06:25;101939.38;;;-1.97;53.78